sensor_id;sensor_type;location;lat;lon;timestamp;temperature;humidity
43862;DHT22;29510;52.140;5.034;2023-01-19T00:10:00;3.60;99.90
43862;DHT22;29510;52.140;5.034;2023-01-19T00:20:01;3.50;99.90
43862;DHT22;29510;52.140;5.034;2023-01-19T00:30:04;3.60;99.90
43862;DHT22;29510;52.140;5.034;2023-01-19T00:40:05;3.50;99.90
43862;DHT22;29510;52.140;5.034;2023-01-19T00:50:09;3.60;99.90
43862;DHT22;29510;52.140;5.034;2023-01-19T01:00:17;3.60;99.90
43862;DHT22;29510;52.140;5.034;2023-01-19T01:10:22;3.40;99.90
43862;DHT22;29510;52.140;5.034;2023-01-19T01:20:26;3.40;99.90
43862;DHT22;29510;52.140;5.034;2023-01-19T01:30:28;3.50;99.90
43862;DHT22;29510;52.140;5.034;2023-01-19T01:40:29;3.60;99.90
43862;DHT22;29510;52.140;5.034;2023-01-19T01:50:32;3.80;99.90
43862;DHT22;29510;52.140;5.034;2023-01-19T02:00:34;4.00;99.90
43862;DHT22;29510;52.140;5.034;2023-01-19T02:10:55;4.00;99.90
43862;DHT22;29510;52.140;5.034;2023-01-19T02:31:45;3.70;99.90
43862;DHT22;29510;52.140;5.034;2023-01-19T02:41:51;3.70;99.90
43862;DHT22;29510;52.140;5.034;2023-01-19T02:51:53;3.70;99.90
43862;DHT22;29510;52.140;5.034;2023-01-19T03:12:35;3.40;99.60
43862;DHT22;29510;52.140;5.034;2023-01-19T03:22:38;3.20;99.90
43862;DHT22;29510;52.140;5.034;2023-01-19T03:32:48;3.00;99.90
43862;DHT22;29510;52.140;5.034;2023-01-19T03:42:51;3.00;99.90
43862;DHT22;29510;52.140;5.034;2023-01-19T03:53:09;3.00;99.90
43862;DHT22;29510;52.140;5.034;2023-01-19T04:03:15;2.70;99.90
43862;DHT22;29510;52.140;5.034;2023-01-19T04:13:17;2.70;99.90
43862;DHT22;29510;52.140;5.034;2023-01-19T04:23:18;2.70;99.90
43862;DHT22;29510;52.140;5.034;2023-01-19T04:33:20;2.70;99.90
43862;DHT22;29510;52.140;5.034;2023-01-19T04:43:22;2.80;99.90
43862;DHT22;29510;52.140;5.034;2023-01-19T04:53:23;2.70;99.90
43862;DHT22;29510;52.140;5.034;2023-01-19T05:03:24;2.80;99.90
43862;DHT22;29510;52.140;5.034;2023-01-19T05:13:25;2.90;99.90
43862;DHT22;29510;52.140;5.034;2023-01-19T05:23:26;2.90;99.90
43862;DHT22;29510;52.140;5.034;2023-01-19T05:33:27;3.00;99.90
43862;DHT22;29510;52.140;5.034;2023-01-19T05:43:28;3.20;99.90
43862;DHT22;29510;52.140;5.034;2023-01-19T05:53:30;3.20;99.90
43862;DHT22;29510;52.140;5.034;2023-01-19T06:03:31;3.20;99.90
43862;DHT22;29510;52.140;5.034;2023-01-19T06:13:33;3.20;99.90
43862;DHT22;29510;52.140;5.034;2023-01-19T06:23:35;3.30;99.90
43862;DHT22;29510;52.140;5.034;2023-01-19T06:33:36;3.20;99.90
43862;DHT22;29510;52.140;5.034;2023-01-19T06:43:37;3.20;99.90
43862;DHT22;29510;52.140;5.034;2023-01-19T06:53:38;3.10;99.90
43862;DHT22;29510;52.140;5.034;2023-01-19T07:03:39;2.90;99.90
43862;DHT22;29510;52.140;5.034;2023-01-19T07:13:40;2.70;99.90
43862;DHT22;29510;52.140;5.034;2023-01-19T07:23:42;2.50;99.90
43862;DHT22;29510;52.140;5.034;2023-01-19T07:33:44;2.30;99.90
43862;DHT22;29510;52.140;5.034;2023-01-19T07:43:45;2.30;99.90
43862;DHT22;29510;52.140;5.034;2023-01-19T07:53:48;2.30;99.90
43862;DHT22;29510;52.140;5.034;2023-01-19T08:03:49;2.20;99.90
43862;DHT22;29510;52.140;5.034;2023-01-19T08:13:51;2.20;99.90
43862;DHT22;29510;52.140;5.034;2023-01-19T08:23:56;2.20;99.90
43862;DHT22;29510;52.140;5.034;2023-01-19T08:33:57;2.40;99.90
43862;DHT22;29510;52.140;5.034;2023-01-19T08:43:58;2.50;99.90
43862;DHT22;29510;52.140;5.034;2023-01-19T08:53:59;2.70;99.90
43862;DHT22;29510;52.140;5.034;2023-01-19T09:04:00;2.90;99.90
43862;DHT22;29510;52.140;5.034;2023-01-19T09:14:02;3.00;99.90
43862;DHT22;29510;52.140;5.034;2023-01-19T09:24:03;3.20;99.90
43862;DHT22;29510;52.140;5.034;2023-01-19T09:34:05;3.10;97.80
43862;DHT22;29510;52.140;5.034;2023-01-19T09:44:15;3.40;97.20
43862;DHT22;29510;52.140;5.034;2023-01-19T09:54:19;3.80;93.80
43862;DHT22;29510;52.140;5.034;2023-01-19T10:04:39;4.20;88.20
43862;DHT22;29510;52.140;5.034;2023-01-19T10:14:46;4.30;74.70
43862;DHT22;29510;52.140;5.034;2023-01-19T10:24:52;4.60;69.60
43862;DHT22;29510;52.140;5.034;2023-01-19T10:34:55;5.00;52.40
43862;DHT22;29510;52.140;5.034;2023-01-19T10:44:57;5.50;42.70
43862;DHT22;29510;52.140;5.034;2023-01-19T10:55:00;5.80;39.30
43862;DHT22;29510;52.140;5.034;2023-01-19T11:05:23;6.30;41.50
43862;DHT22;29510;52.140;5.034;2023-01-19T11:25:34;7.60;25.20
43862;DHT22;29510;52.140;5.034;2023-01-19T11:35:39;8.00;23.60
43862;DHT22;29510;52.140;5.034;2023-01-19T11:45:41;7.60;24.70
43862;DHT22;29510;52.140;5.034;2023-01-19T12:05:57;8.20;19.20
43862;DHT22;29510;52.140;5.034;2023-01-19T12:16:07;8.70;13.90
43862;DHT22;29510;52.140;5.034;2023-01-19T12:26:29;8.50;12.70
43862;DHT22;29510;52.140;5.034;2023-01-19T12:36:36;8.70;12.20
43862;DHT22;29510;52.140;5.034;2023-01-19T12:46:50;8.60;13.00
43862;DHT22;29510;52.140;5.034;2023-01-19T12:56:57;8.70;12.10
43862;DHT22;29510;52.140;5.034;2023-01-19T13:17:18;8.80;13.50
43862;DHT22;29510;52.140;5.034;2023-01-19T13:27:21;9.20;5.90
43862;DHT22;29510;52.140;5.034;2023-01-19T13:37:42;8.40;8.00
43862;DHT22;29510;52.140;5.034;2023-01-19T13:47:47;8.70;4.10
43862;DHT22;29510;52.140;5.034;2023-01-19T13:57:50;8.00;10.30
43862;DHT22;29510;52.140;5.034;2023-01-19T14:38:29;6.50;13.00
43862;DHT22;29510;52.140;5.034;2023-01-19T14:48:30;6.40;9.90
43862;DHT22;29510;52.140;5.034;2023-01-19T14:58:33;6.60;14.20
43862;DHT22;29510;52.140;5.034;2023-01-19T15:08:35;6.70;10.90
43862;DHT22;29510;52.140;5.034;2023-01-19T15:18:38;6.60;12.10
43862;DHT22;29510;52.140;5.034;2023-01-19T15:28:40;6.30;12.10
43862;DHT22;29510;52.140;5.034;2023-01-19T15:38:41;5.80;18.30
43862;DHT22;29510;52.140;5.034;2023-01-19T15:48:42;5.40;22.00
43862;DHT22;29510;52.140;5.034;2023-01-19T15:58:43;5.00;25.10
43862;DHT22;29510;52.140;5.034;2023-01-19T16:08:44;4.70;29.20
43862;DHT22;29510;52.140;5.034;2023-01-19T16:18:45;4.40;31.10
43862;DHT22;29510;52.140;5.034;2023-01-19T16:28:47;4.10;31.60
43862;DHT22;29510;52.140;5.034;2023-01-19T16:38:48;4.00;32.40
43862;DHT22;29510;52.140;5.034;2023-01-19T16:48:50;3.80;36.50
43862;DHT22;29510;52.140;5.034;2023-01-19T16:58:55;3.60;37.00
43862;DHT22;29510;52.140;5.034;2023-01-19T17:08:56;3.40;38.40
43862;DHT22;29510;52.140;5.034;2023-01-19T17:19:00;3.40;41.10
43862;DHT22;29510;52.140;5.034;2023-01-19T17:29:03;3.20;43.50
43862;DHT22;29510;52.140;5.034;2023-01-19T17:39:07;3.00;45.80
43862;DHT22;29510;52.140;5.034;2023-01-19T17:49:09;2.90;48.10
43862;DHT22;29510;52.140;5.034;2023-01-19T17:59:10;3.00;47.00
43862;DHT22;29510;52.140;5.034;2023-01-19T18:09:11;3.10;38.20
43862;DHT22;29510;52.140;5.034;2023-01-19T18:19:27;3.00;45.80
43862;DHT22;29510;52.140;5.034;2023-01-19T18:29:28;3.00;46.30
43862;DHT22;29510;52.140;5.034;2023-01-19T18:39:29;2.90;44.20
43862;DHT22;29510;52.140;5.034;2023-01-19T18:49:30;2.80;49.40
43862;DHT22;29510;52.140;5.034;2023-01-19T18:59:31;2.70;52.40
43862;DHT22;29510;52.140;5.034;2023-01-19T19:09:32;2.80;56.80
43862;DHT22;29510;52.140;5.034;2023-01-19T19:19:33;2.80;59.00
43862;DHT22;29510;52.140;5.034;2023-01-19T19:29:34;2.70;58.20
43862;DHT22;29510;52.140;5.034;2023-01-19T19:39:35;2.40;64.60
43862;DHT22;29510;52.140;5.034;2023-01-19T19:49:38;2.40;73.50
43862;DHT22;29510;52.140;5.034;2023-01-19T19:59:39;2.40;78.80
43862;DHT22;29510;52.140;5.034;2023-01-19T20:09:40;2.50;82.10
43862;DHT22;29510;52.140;5.034;2023-01-19T20:19:42;2.60;87.30
43862;DHT22;29510;52.140;5.034;2023-01-19T20:29:48;2.60;83.60
43862;DHT22;29510;52.140;5.034;2023-01-19T20:39:50;2.50;82.40
43862;DHT22;29510;52.140;5.034;2023-01-19T20:49:51;2.20;82.50
43862;DHT22;29510;52.140;5.034;2023-01-19T20:59:52;2.00;85.10
43862;DHT22;29510;52.140;5.034;2023-01-19T21:09:53;2.20;90.50
43862;DHT22;29510;52.140;5.034;2023-01-19T21:19:54;2.00;89.80
43862;DHT22;29510;52.140;5.034;2023-01-19T21:29:55;1.90;90.60
43862;DHT22;29510;52.140;5.034;2023-01-19T21:39:58;1.90;90.90
43862;DHT22;29510;52.140;5.034;2023-01-19T21:49:59;1.80;91.90
43862;DHT22;29510;52.140;5.034;2023-01-19T22:00:01;1.80;92.40
43862;DHT22;29510;52.140;5.034;2023-01-19T22:10:02;1.80;93.30
43862;DHT22;29510;52.140;5.034;2023-01-19T22:20:03;1.70;94.50
43862;DHT22;29510;52.140;5.034;2023-01-19T22:30:05;1.60;92.00
43862;DHT22;29510;52.140;5.034;2023-01-19T22:40:07;1.50;92.80
43862;DHT22;29510;52.140;5.034;2023-01-19T22:50:08;1.40;93.70
43862;DHT22;29510;52.140;5.034;2023-01-19T23:00:10;1.40;94.70
43862;DHT22;29510;52.140;5.034;2023-01-19T23:10:11;1.40;96.00
43862;DHT22;29510;52.140;5.034;2023-01-19T23:20:12;1.40;97.10
43862;DHT22;29510;52.140;5.034;2023-01-19T23:30:14;1.30;98.40
43862;DHT22;29510;52.140;5.034;2023-01-19T23:40:15;1.30;98.90
43862;DHT22;29510;52.140;5.034;2023-01-19T23:50:16;1.30;98.60
